createdAt,value
2023-05-03T00:04:24.863Z,75493.50
2023-05-03T00:14:29.557Z,75497.56
2023-05-03T00:24:37.078Z,75509.69
2023-05-03T00:34:41.710Z,75511.72
2023-05-03T00:44:44.803Z,75517.78
2023-05-03T00:54:46.901Z,75556.25
2023-05-03T01:04:51.864Z,75584.56
2023-05-03T01:15:13.186Z,75606.84
2023-05-03T01:25:16.419Z,75633.13
2023-05-03T01:35:27.263Z,75649.31
2023-05-03T01:45:31.693Z,75667.53
2023-05-03T01:55:33.919Z,75706.00
2023-05-03T02:05:36.564Z,75697.91
2023-05-03T02:15:38.813Z,75712.06
2023-05-03T02:25:44.266Z,75706.00
2023-05-03T02:35:54.988Z,75718.13
2023-05-03T02:46:00.042Z,75724.22
2023-05-03T02:56:04.650Z,75722.19
2023-05-03T03:06:09.571Z,75712.06
2023-05-03T03:16:13.767Z,75734.31
2023-05-03T03:26:17.940Z,75736.34
2023-05-03T03:36:21.225Z,75766.72
2023-05-03T03:46:28.240Z,75764.69
2023-05-03T03:56:34.435Z,75786.94
2023-05-03T04:06:38.910Z,75807.19
2023-05-03T04:16:45.454Z,75823.38
2023-05-03T04:26:47.687Z,75823.38
2023-05-03T04:36:57.585Z,75782.91
2023-05-03T04:47:03.263Z,75738.38
2023-05-03T04:57:11.478Z,75714.09
2023-05-03T05:07:14.240Z,75572.44
2023-05-03T05:17:20.330Z,75380.19
2023-05-03T05:27:27.176Z,75214.25
2023-05-03T05:37:31.037Z,75177.81
2023-05-03T05:47:36.576Z,75123.19
2023-05-03T05:57:41.866Z,75046.28
2023-05-03T06:07:48.455Z,75017.97
2023-05-03T06:17:50.866Z,75068.56
2023-05-03T06:27:53.336Z,74965.34
2023-05-03T06:38:01.593Z,74965.34
2023-05-03T06:48:04.305Z,74928.94
2023-05-03T06:58:10.410Z,74969.41
2023-05-03T07:08:12.784Z,74904.66
2023-05-03T07:18:19.520Z,74862.16
2023-05-03T07:28:26.707Z,74914.78
2023-05-03T07:38:31.168Z,74839.91
2023-05-03T07:48:33.665Z,74872.28
2023-05-03T07:58:40.727Z,74872.28
2023-05-03T08:08:48.236Z,74916.78
2023-05-03T08:18:52.874Z,74965.34
2023-05-03T08:28:55.127Z,74932.97
2023-05-03T08:38:57.510Z,74959.28
2023-05-03T08:49:02.610Z,74910.72
2023-05-03T08:59:10.090Z,74991.66
2023-05-03T09:09:14.736Z,75058.44
2023-05-03T09:19:19.126Z,75143.41
2023-05-03T09:29:36.272Z,75040.22
2023-05-03T09:39:43.412Z,75139.38
2023-05-03T09:49:45.921Z,75153.53
2023-05-03T09:59:51.151Z,75208.16
2023-05-03T10:09:53.368Z,75183.88
2023-05-03T10:20:11.249Z,75169.72
2023-05-03T10:30:33.244Z,75281.03
2023-05-03T10:40:47.755Z,75230.44
2023-05-03T10:50:51.922Z,75175.78
2023-05-03T11:00:56.500Z,75123.19
2023-05-03T11:11:00.629Z,75096.88
2023-05-03T11:21:07.519Z,75096.88
2023-05-03T11:31:15.367Z,75226.38
2023-05-03T11:41:21.951Z,75208.16
2023-05-03T11:51:30.252Z,75179.84
2023-05-03T12:01:32.537Z,75244.59
2023-05-03T12:11:44.021Z,75301.25
2023-05-03T12:22:04.790Z,75268.88
2023-05-03T12:32:15.412Z,75270.91
2023-05-03T12:42:21.616Z,75299.22
2023-05-03T13:12:41.473Z,75191.97
2023-05-03T13:22:46.117Z,75196.03
2023-05-03T13:32:48.648Z,75212.22
2023-05-03T13:42:58.609Z,75238.53
2023-05-03T13:53:00.895Z,75171.75
2023-05-03T14:03:03.217Z,75102.94
2023-05-03T14:13:05.504Z,75107.00
2023-05-03T14:23:09.623Z,75090.81
2023-05-03T14:33:15.738Z,75133.31
2023-05-03T14:43:18.082Z,75062.47
2023-05-03T14:53:20.779Z,75060.47
2023-05-03T15:03:27.024Z,75169.72
2023-05-03T15:13:29.786Z,75145.44
2023-05-03T15:23:31.971Z,75139.38
2023-05-03T15:33:46.891Z,75131.28
2023-05-03T15:43:50.507Z,75155.56
2023-05-03T15:53:52.856Z,75117.13
2023-05-03T16:04:02.177Z,75129.25
2023-05-03T16:14:09.909Z,75135.31
2023-05-03T16:24:13.092Z,75163.66
2023-05-03T16:34:19.452Z,75202.09
2023-05-03T16:44:25.271Z,75208.16
2023-05-03T16:54:32.686Z,75236.50
2023-05-03T17:04:37.986Z,75289.13
2023-05-03T17:14:40.787Z,75289.13
2023-05-03T17:24:43.586Z,75311.38
2023-05-03T17:34:47.866Z,75386.25
2023-05-03T17:44:55.951Z,75382.19
2023-05-03T17:54:58.399Z,75418.63
2023-05-03T18:05:00.867Z,75440.88
2023-05-03T18:15:08.586Z,75461.13
2023-05-03T18:25:10.712Z,75473.25
2023-05-03T18:35:13.511Z,75485.41
2023-05-03T18:45:19.812Z,75505.66
2023-05-03T18:55:25.772Z,75515.75
2023-05-03T19:05:32.885Z,75531.94
2023-05-03T19:15:42.179Z,75544.09
2023-05-03T19:25:44.716Z,75562.31
2023-05-03T19:35:47.382Z,75576.47
2023-05-03T19:45:56.988Z,75588.63
2023-05-03T19:56:07.472Z,75618.97
2023-05-03T20:06:13.014Z,75633.13
2023-05-03T20:16:15.417Z,75651.34
2023-05-03T20:26:19.275Z,75667.53
2023-05-03T20:36:21.502Z,75677.66
2023-05-03T20:46:23.685Z,75697.91
2023-05-03T20:56:32.373Z,75710.03
2023-05-03T21:06:36.397Z,75726.22
2023-05-03T21:16:42.637Z,75746.47
2023-05-03T21:26:44.958Z,75766.72
2023-05-03T21:36:52.306Z,75770.75
2023-05-03T21:46:57.573Z,75793.03
2023-05-03T21:57:02.233Z,75799.09
2023-05-03T22:07:06.660Z,75811.22
2023-05-03T22:17:10.330Z,75825.41
2023-05-03T22:27:12.476Z,75831.47
2023-05-03T22:37:14.721Z,75857.78
2023-05-03T22:47:19.159Z,75880.03
2023-05-03T22:57:21.438Z,75894.22
2023-05-03T23:07:23.620Z,75916.47
2023-05-03T23:17:25.924Z,75934.69
2023-05-03T23:27:31.769Z,75948.84
2023-05-03T23:37:37.113Z,75956.94
2023-05-03T23:47:39.249Z,75969.09
2023-05-03T23:57:41.783Z,75989.34
